Time;durP1;ratioP1;P1;durP2;ratioP2;P2;SDS_P1;SDS_P2;PMS_P1;PMS_P2;Temp;Humidity;BMP_temperature;BMP_pressure;BME280_temperature;BME280_humidity;BME280_pressure;Samples;Min_cycle;Max_cycle;Signal;HPM_P1;HPM_P2
2021/03/15 00:00:21;;;;;;;;;;;18.90;99.90;;;;;;4994323;28;20109;-80
2021/03/15 00:02:51;;;;;;;;;;;18.90;99.90;;;;;;4994079;28;20288;-78
2021/03/15 00:05:19;;;;;;;;;;;18.90;99.90;;;;;;4992553;28;19925;-80
2021/03/15 00:07:45;;;;;;;;;;;19.00;99.90;;;;;;4994227;28;19936;-79
2021/03/15 00:10:12;;;;;;;;;;;19.00;99.90;;;;;;4992920;28;19914;-81
2021/03/15 00:12:41;;;;;;;;;;;19.00;99.90;;;;;;4995111;28;20395;-77
2021/03/15 00:15:09;;;;;;;;;;;18.90;99.90;;;;;;4984260;28;19969;-79
2021/03/15 00:17:36;;;;;;;;;;;19.00;99.90;;;;;;4992561;28;19936;-83
2021/03/15 00:20:03;;;;;;;;;;;19.00;99.90;;;;;;5000719;28;19915;-78
2021/03/15 00:22:30;;;;;;;;;;;19.20;99.90;;;;;;4995754;28;19922;-76
2021/03/15 00:24:57;;;;;;;;;;;19.20;99.90;;;;;;4991289;28;19932;-79
2021/03/15 00:27:24;;;;;;;;;;;19.30;99.90;;;;;;4974370;28;20273;-79
2021/03/15 00:29:51;;;;;;;;;;;19.40;99.90;;;;;;4973767;28;20357;-78
2021/03/15 00:32:18;;;;;;;;;;;19.40;99.90;;;;;;4995158;28;19941;-78
2021/03/15 00:34:45;;;;;;;;;;;19.40;99.90;;;;;;4995705;28;19988;-78
2021/03/15 00:37:12;;;;;;;;;;;19.60;99.90;;;;;;5006673;28;19975;-77
2021/03/15 00:39:39;;;;;;;;;;;19.60;99.90;;;;;;5007729;28;19914;-79
2021/03/15 00:42:06;;;;;;;;;;;19.70;99.90;;;;;;4985209;28;19913;-79
2021/03/15 00:44:33;;;;;;;;;;;19.80;99.90;;;;;;4986081;28;19952;-78
2021/03/15 00:47:00;;;;;;;;;;;19.80;99.90;;;;;;4990271;28;20341;-78
2021/03/15 00:49:27;;;;;;;;;;;19.90;99.90;;;;;;4992272;28;19921;-78
2021/03/15 00:51:53;;;;;;;;;;;19.90;99.90;;;;;;4988874;28;19914;-79
2021/03/15 00:54:21;;;;;;;;;;;19.90;99.90;;;;;;4988781;28;19915;-80
2021/03/15 00:56:48;;;;;;;;;;;19.90;99.90;;;;;;4987882;28;19926;-79
2021/03/15 00:59:15;;;;;;;;;;;20.00;99.90;;;;;;4982715;28;20012;-78
2021/03/15 01:01:42;;;;;;;;;;;19.90;99.90;;;;;;4986750;28;19956;-78
2021/03/15 01:04:11;;;;;;;;;;;19.90;99.90;;;;;;4988576;28;19922;-77
2021/03/15 01:06:37;;;;;;;;;;;20.10;99.90;;;;;;4983219;28;19913;-77
2021/03/15 01:09:04;;;;;;;;;;;20.20;99.90;;;;;;4986469;28;19922;-77
2021/03/15 01:11:31;;;;;;;;;;;20.40;99.90;;;;;;4989966;28;19914;-78
2021/03/15 01:13:58;;;;;;;;;;;20.60;99.90;;;;;;4986910;28;20040;-78
2021/03/15 01:16:24;;;;;;;;;;;20.90;99.90;;;;;;4983354;28;19937;-78
2021/03/15 01:18:51;;;;;;;;;;;21.10;99.90;;;;;;4985211;28;19913;-76
2021/03/15 01:21:18;;;;;;;;;;;21.30;99.90;;;;;;4981546;28;19944;-76
2021/03/15 01:23:45;;;;;;;;;;;21.30;99.90;;;;;;4995061;28;19925;-79
2021/03/15 01:26:11;;;;;;;;;;;21.20;99.90;;;;;;5011247;28;19932;-76
2021/03/15 01:28:38;;;;;;;;;;;21.10;99.90;;;;;;4994128;28;20525;-79
2021/03/15 01:31:05;;;;;;;;;;;21.10;99.90;;;;;;4989470;28;19920;-78
2021/03/15 01:33:31;;;;;;;;;;;21.30;99.90;;;;;;4980955;28;19961;-78
2021/03/15 01:35:58;;;;;;;;;;;21.20;99.90;;;;;;4982691;28;19932;-80
2021/03/15 01:38:25;;;;;;;;;;;21.30;99.90;;;;;;4985532;28;19940;-78
2021/03/15 01:40:51;;;;;;;;;;;21.30;99.90;;;;;;4984238;28;20688;-79
2021/03/15 01:43:18;;;;;;;;;;;21.20;99.90;;;;;;4987139;28;19926;-78
2021/03/15 01:45:45;;;;;;;;;;;21.10;99.90;;;;;;4983656;28;19981;-78
2021/03/15 01:48:13;;;;;;;;;;;20.90;99.90;;;;;;4988019;28;20013;-77
2021/03/15 01:50:44;;;;;;;;;;;21.00;99.90;;;;;;4992960;28;19918;-78
2021/03/15 01:53:11;;;;;;;;;;;21.00;99.90;;;;;;4993734;28;20426;-77
2021/03/15 01:55:38;;;;;;;;;;;20.90;99.90;;;;;;4992799;28;19914;-78
2021/03/15 01:58:05;;;;;;;;;;;20.70;99.90;;;;;;4992659;28;20088;-77
2021/03/15 02:00:32;;;;;;;;;;;20.70;99.90;;;;;;4992501;28;19917;-79
2021/03/15 02:03:00;;;;;;;;;;;20.60;99.90;;;;;;4984670;28;19918;-79
2021/03/15 02:05:27;;;;;;;;;;;20.60;99.90;;;;;;4994984;28;19917;-78
2021/03/15 02:07:54;;;;;;;;;;;20.70;99.90;;;;;;4994198;28;19921;-79
2021/03/15 02:10:21;;;;;;;;;;;20.70;99.90;;;;;;4993414;28;19910;-79
2021/03/15 02:13:08;;;;;;;;;;;20.80;99.90;;;;;;4992059;28;20000;-77
2021/03/15 02:15:42;;;;;;;;;;;20.80;99.90;;;;;;4958542;28;20446;-80
2021/03/15 02:18:16;;;;;;;;;;;20.80;99.90;;;;;;4996010;28;19914;-80
2021/03/15 02:21:02;;;;;;;;;;;20.80;99.90;;;;;;4997621;28;20319;-80
2021/03/15 02:23:38;;;;;;;;;;;20.70;99.90;;;;;;4998787;28;20410;-79
2021/03/15 02:26:23;;;;;;;;;;;20.80;99.90;;;;;;4998162;28;19914;-79
2021/03/15 02:28:53;;;;;;;;;;;20.70;99.90;;;;;;4998220;28;19914;-80
2021/03/15 02:31:22;;;;;;;;;;;20.80;99.90;;;;;;4989832;28;19914;-79
2021/03/15 02:33:58;;;;;;;;;;;20.90;99.90;;;;;;4996497;28;19989;-79
2021/03/15 02:36:26;;;;;;;;;;;20.70;99.90;;;;;;4997525;28;19930;-80
2021/03/15 02:38:52;;;;;;;;;;;20.70;99.90;;;;;;4995934;28;19968;-78
2021/03/15 02:41:19;;;;;;;;;;;20.70;99.90;;;;;;4996121;28;19913;-78
2021/03/15 02:43:49;;;;;;;;;;;20.60;99.90;;;;;;4993241;28;19918;-79
2021/03/15 02:46:17;;;;;;;;;;;20.80;99.90;;;;;;4995585;28;19918;-83
2021/03/15 02:48:45;;;;;;;;;;;20.90;99.90;;;;;;4997225;28;19914;-80
2021/03/15 02:51:12;;;;;;;;;;;20.90;99.90;;;;;;4997299;28;19956;-78
2021/03/15 02:53:40;;;;;;;;;;;20.80;99.90;;;;;;5000163;28;19910;-77
2021/03/15 02:56:28;;;;;;;;;;;20.90;99.90;;;;;;5002665;28;19949;-78
2021/03/15 02:58:56;;;;;;;;;;;20.90;99.90;;;;;;4996245;28;19913;-84
2021/03/15 03:01:27;;;;;;;;;;;20.90;99.90;;;;;;4997177;28;20357;-80
2021/03/15 03:03:56;;;;;;;;;;;21.00;99.90;;;;;;4998122;28;19941;-81
2021/03/15 03:06:24;;;;;;;;;;;20.90;99.90;;;;;;4997633;28;19921;-79
2021/03/15 03:08:52;;;;;;;;;;;20.80;99.90;;;;;;4997967;28;19914;-77
2021/03/15 03:11:20;;;;;;;;;;;20.90;99.90;;;;;;5003185;28;20276;-81
2021/03/15 03:13:47;;;;;;;;;;;20.90;99.90;;;;;;4998120;28;19959;-77
2021/03/15 03:16:14;;;;;;;;;;;21.00;99.90;;;;;;4996615;28;20347;-77
2021/03/15 03:18:42;;;;;;;;;;;21.00;99.90;;;;;;4987861;28;19989;-79
2021/03/15 03:21:10;;;;;;;;;;;21.10;99.90;;;;;;4992589;28;20604;-78
2021/03/15 03:23:38;;;;;;;;;;;21.10;99.90;;;;;;4997189;28;19924;-82
2021/03/15 03:26:05;;;;;;;;;;;21.20;99.90;;;;;;4983061;28;20300;-81
2021/03/15 03:28:32;;;;;;;;;;;21.10;99.90;;;;;;4979391;28;19917;-81
2021/03/15 03:31:00;;;;;;;;;;;21.10;99.90;;;;;;4993595;28;19918;-81
2021/03/15 03:33:28;;;;;;;;;;;21.10;99.90;;;;;;4993651;28;19924;-81
2021/03/15 03:35:54;;;;;;;;;;;21.10;99.90;;;;;;4993667;28;19969;-79
2021/03/15 03:38:21;;;;;;;;;;;21.20;99.90;;;;;;4987242;28;19929;-81
2021/03/15 03:40:48;;;;;;;;;;;21.20;99.90;;;;;;4993412;28;19917;-82
2021/03/15 03:43:15;;;;;;;;;;;21.20;99.90;;;;;;4998167;28;19992;-77
2021/03/15 03:45:42;;;;;;;;;;;21.10;99.90;;;;;;4992847;28;20033;-81
2021/03/15 03:48:08;;;;;;;;;;;21.10;99.90;;;;;;4995098;28;19920;-80
2021/03/15 03:50:35;;;;;;;;;;;21.00;99.90;;;;;;4996049;28;19914;-80
2021/03/15 03:53:06;;;;;;;;;;;20.80;99.90;;;;;;4982721;28;19922;-81
2021/03/15 03:55:35;;;;;;;;;;;20.70;99.90;;;;;;4976955;28;19914;-79
2021/03/15 03:58:02;;;;;;;;;;;20.70;99.90;;;;;;5008082;28;20273;-79
2021/03/15 04:00:30;;;;;;;;;;;20.60;99.90;;;;;;5009898;28;19913;-82
2021/03/15 04:03:00;;;;;;;;;;;20.40;99.90;;;;;;4993408;28;19918;-82
2021/03/15 04:05:30;;;;;;;;;;;20.50;99.90;;;;;;4994382;28;20428;-81
2021/03/15 04:08:02;;;;;;;;;;;20.50;99.90;;;;;;4991262;28;19910;-81
2021/03/15 04:10:32;;;;;;;;;;;20.50;99.90;;;;;;5007501;28;19924;-81
2021/03/15 04:13:03;;;;;;;;;;;20.40;99.90;;;;;;4994139;28;19910;-81
2021/03/15 04:15:30;;;;;;;;;;;20.60;99.90;;;;;;4992249;28;20004;-79
2021/03/15 04:17:58;;;;;;;;;;;20.80;99.90;;;;;;5009370;28;19937;-79
2021/03/15 04:20:32;;;;;;;;;;;20.90;99.90;;;;;;4994296;28;19910;-79
2021/03/15 04:23:01;;;;;;;;;;;21.00;99.90;;;;;;4994470;28;19918;-79
2021/03/15 04:25:31;;;;;;;;;;;21.00;99.90;;;;;;4994426;28;19980;-78
2021/03/15 04:27:58;;;;;;;;;;;21.00;99.90;;;;;;4993235;28;19918;-79
2021/03/15 04:30:25;;;;;;;;;;;20.90;99.90;;;;;;4993966;28;19914;-78
2021/03/15 04:32:53;;;;;;;;;;;20.90;99.90;;;;;;4983930;28;19980;-77
2021/03/15 04:35:24;;;;;;;;;;;21.00;99.90;;;;;;4979708;28;19914;-77
2021/03/15 04:37:51;;;;;;;;;;;20.90;99.50;;;;;;4990245;28;19926;-79
2021/03/15 04:40:19;;;;;;;;;;;20.80;99.90;;;;;;4990795;28;20020;-80
2021/03/15 04:42:46;;;;;;;;;;;21.00;99.90;;;;;;4974594;28;19997;-80
2021/03/15 04:45:13;;;;;;;;;;;21.10;99.90;;;;;;4982518;28;19921;-78
2021/03/15 04:47:40;;;;;;;;;;;21.00;99.90;;;;;;4988974;28;19914;-78
2021/03/15 04:50:08;;;;;;;;;;;21.00;99.90;;;;;;4992015;28;19914;-78
2021/03/15 04:52:36;;;;;;;;;;;20.90;99.90;;;;;;4994505;28;19958;-80
2021/03/15 04:55:03;;;;;;;;;;;20.90;99.90;;;;;;4986678;28;19921;-79
2021/03/15 04:57:31;;;;;;;;;;;20.80;99.90;;;;;;4992321;28;19925;-82
2021/03/15 04:59:58;;;;;;;;;;;20.80;99.90;;;;;;4992972;28;19918;-80
2021/03/15 05:02:25;;;;;;;;;;;20.80;99.80;;;;;;4992987;28;20013;-80
2021/03/15 05:04:52;;;;;;;;;;;21.00;99.70;;;;;;4993293;28;19921;-78
2021/03/15 05:07:19;;;;;;;;;;;21.10;99.60;;;;;;4990831;28;19910;-78
2021/03/15 05:09:48;;;;;;;;;;;21.10;99.20;;;;;;4994146;28;19914;-79
2021/03/15 05:12:15;;;;;;;;;;;21.00;99.90;;;;;;4997733;28;19968;-76
2021/03/15 05:14:41;;;;;;;;;;;20.90;99.90;;;;;;4992653;28;20320;-79
2021/03/15 05:17:10;;;;;;;;;;;20.80;99.90;;;;;;4990460;28;20341;-81
2021/03/15 05:19:38;;;;;;;;;;;21.20;99.90;;;;;;4994360;28;19917;-77
2021/03/15 05:22:05;;;;;;;;;;;21.20;99.90;;;;;;4994069;28;19916;-80
2021/03/15 05:24:32;;;;;;;;;;;21.10;99.90;;;;;;4992529;28;19980;-81
2021/03/15 05:26:58;;;;;;;;;;;21.20;99.90;;;;;;4992727;28;19963;-77
2021/03/15 05:29:25;;;;;;;;;;;21.10;99.80;;;;;;4991579;28;19914;-79
2021/03/15 05:31:53;;;;;;;;;;;21.00;99.90;;;;;;4993136;28;19928;-78
2021/03/15 05:34:21;;;;;;;;;;;21.00;99.80;;;;;;4990878;28;19922;-80
2021/03/15 05:36:50;;;;;;;;;;;20.90;99.90;;;;;;4992398;28;19933;-81
2021/03/15 05:39:17;;;;;;;;;;;20.90;99.90;;;;;;4992924;28;19916;-81
2021/03/15 05:41:53;;;;;;;;;;;20.90;99.70;;;;;;4980153;28;19910;-81
2021/03/15 05:44:26;;;;;;;;;;;20.90;99.90;;;;;;4972193;28;19926;-79
2021/03/15 05:46:52;;;;;;;;;;;20.90;99.90;;;;;;4978797;28;20007;-78
2021/03/15 05:49:44;;;;;;;;;;;20.90;99.90;;;;;;4990993;28;19949;-79
2021/03/15 05:52:29;;;;;;;;;;;20.90;99.90;;;;;;4992589;28;19914;-79
2021/03/15 05:54:55;;;;;;;;;;;20.90;99.90;;;;;;4991451;28;19948;-79
2021/03/15 05:57:40;;;;;;;;;;;20.90;99.90;;;;;;4992180;28;19925;-80
2021/03/15 06:00:21;;;;;;;;;;;20.90;99.90;;;;;;4991572;28;19914;-79
2021/03/15 06:03:06;;;;;;;;;;;20.80;99.90;;;;;;4993191;28;19918;-80
2021/03/15 06:05:35;;;;;;;;;;;21.00;99.90;;;;;;4992897;28;19941;-80
2021/03/15 06:08:03;;;;;;;;;;;20.90;99.90;;;;;;4977871;28;19921;-80
2021/03/15 06:10:42;;;;;;;;;;;20.80;99.90;;;;;;4982614;28;19918;-78
2021/03/15 06:13:15;;;;;;;;;;;20.80;99.90;;;;;;4983283;28;19964;-78
2021/03/15 06:15:45;;;;;;;;;;;20.80;99.90;;;;;;4979047;28;19918;-79
2021/03/15 06:18:13;;;;;;;;;;;20.80;99.90;;;;;;4986291;28;19918;-79
2021/03/15 06:20:41;;;;;;;;;;;20.70;99.90;;;;;;5007117;28;20004;-79
2021/03/15 06:23:07;;;;;;;;;;;20.60;99.80;;;;;;4992860;28;19976;-81
2021/03/15 06:25:35;;;;;;;;;;;20.80;99.90;;;;;;4990402;28;20021;-82
2021/03/15 06:28:03;;;;;;;;;;;20.80;99.90;;;;;;4990946;28;19920;-81
2021/03/15 06:30:29;;;;;;;;;;;20.70;99.90;;;;;;4992280;28;20376;-82
2021/03/15 06:32:57;;;;;;;;;;;20.70;99.90;;;;;;4992251;28;19922;-84
2021/03/15 06:35:29;;;;;;;;;;;20.60;99.90;;;;;;4990059;28;19997;-82
2021/03/15 06:37:56;;;;;;;;;;;20.60;99.90;;;;;;4997722;28;20492;-82
2021/03/15 06:40:24;;;;;;;;;;;20.60;99.90;;;;;;4979588;28;19912;-78
2021/03/15 06:42:51;;;;;;;;;;;20.60;99.90;;;;;;4969770;28;20071;-80
2021/03/15 06:45:19;;;;;;;;;;;20.60;99.90;;;;;;4966026;28;20416;-78
2021/03/15 06:47:46;;;;;;;;;;;20.60;99.90;;;;;;4967382;28;19911;-80
2021/03/15 06:50:14;;;;;;;;;;;20.60;99.90;;;;;;4967601;28;19925;-78
2021/03/15 06:52:53;;;;;;;;;;;20.50;99.90;;;;;;4968719;28;19917;-78
2021/03/15 06:55:20;;;;;;;;;;;20.50;99.90;;;;;;4968302;28;19964;-79
2021/03/15 06:57:47;;;;;;;;;;;20.50;99.90;;;;;;4970659;28;19917;-77
2021/03/15 07:00:14;;;;;;;;;;;20.40;99.90;;;;;;4970512;28;19910;-78
2021/03/15 07:02:41;;;;;;;;;;;20.40;99.90;;;;;;4974031;28;19910;-80
2021/03/15 07:05:14;;;;;;;;;;;20.30;99.90;;;;;;4977164;28;19969;-79
2021/03/15 07:07:52;;;;;;;;;;;20.30;99.90;;;;;;4975597;28;19965;-81
2021/03/15 07:10:21;;;;;;;;;;;20.40;99.90;;;;;;4976110;28;19918;-78
2021/03/15 07:12:48;;;;;;;;;;;20.40;99.90;;;;;;4977084;28;19965;-81
2021/03/15 07:15:15;;;;;;;;;;;20.30;99.90;;;;;;4975198;28;19911;-81
2021/03/15 07:17:42;;;;;;;;;;;20.30;99.90;;;;;;4976004;28;19916;-81
2021/03/15 07:20:10;;;;;;;;;;;20.30;99.90;;;;;;4976800;28;20303;-81
2021/03/15 07:22:43;;;;;;;;;;;20.20;99.90;;;;;;4975749;28;20263;-79
2021/03/15 07:25:15;;;;;;;;;;;20.20;99.90;;;;;;4977402;28;19918;-80
2021/03/15 07:27:49;;;;;;;;;;;20.20;99.90;;;;;;4976543;28;19918;-82
2021/03/15 07:30:34;;;;;;;;;;;20.20;99.90;;;;;;4977127;28;19917;-80
2021/03/15 07:33:05;;;;;;;;;;;20.10;99.90;;;;;;4975887;28;20277;-81
2021/03/15 07:35:39;;;;;;;;;;;20.20;99.90;;;;;;4975650;28;20341;-81
2021/03/15 07:38:06;;;;;;;;;;;20.10;99.90;;;;;;4976923;28;19918;-81
2021/03/15 07:40:37;;;;;;;;;;;20.00;99.90;;;;;;4976971;28;19910;-79
2021/03/15 07:43:08;;;;;;;;;;;20.00;99.90;;;;;;4976766;28;20343;-81
2021/03/15 07:45:36;;;;;;;;;;;20.00;99.90;;;;;;4976749;28;19918;-77
2021/03/15 07:48:10;;;;;;;;;;;20.00;99.90;;;;;;4974909;28;19995;-79
2021/03/15 07:50:37;;;;;;;;;;;19.90;99.90;;;;;;4975403;28;20005;-79
2021/03/15 07:53:04;;;;;;;;;;;19.90;99.90;;;;;;4976453;28;19914;-80
2021/03/15 07:55:35;;;;;;;;;;;19.90;99.90;;;;;;4975362;28;19958;-80
2021/03/15 07:58:02;;;;;;;;;;;19.80;99.90;;;;;;4987019;28;19913;-79
2021/03/15 08:00:29;;;;;;;;;;;19.70;99.90;;;;;;4996388;28;19910;-78
2021/03/15 08:03:00;;;;;;;;;;;19.70;99.90;;;;;;4978342;28;19910;-81
2021/03/15 08:05:27;;;;;;;;;;;19.70;99.90;;;;;;4975144;28;20020;-78
2021/03/15 08:07:53;;;;;;;;;;;19.60;99.90;;;;;;4980522;28;20246;-80
2021/03/15 08:10:20;;;;;;;;;;;19.60;99.90;;;;;;4988712;28;19914;-84
2021/03/15 08:12:47;;;;;;;;;;;19.60;99.90;;;;;;4985252;28;20000;-83
2021/03/15 08:15:15;;;;;;;;;;;19.50;99.90;;;;;;4988022;28;20291;-81
2021/03/15 08:17:46;;;;;;;;;;;19.50;99.90;;;;;;4994836;28;19922;-79
2021/03/15 08:20:14;;;;;;;;;;;19.50;99.90;;;;;;4995349;28;19960;-81
2021/03/15 08:22:45;;;;;;;;;;;19.40;99.90;;;;;;4995966;28;19909;-81
2021/03/15 08:25:12;;;;;;;;;;;19.40;99.90;;;;;;4995065;28;19922;-82
2021/03/15 08:27:40;;;;;;;;;;;19.40;99.90;;;;;;5009599;28;19910;-81
2021/03/15 08:30:17;;;;;;;;;;;19.40;99.90;;;;;;4993095;28;20551;-84
2021/03/15 08:32:44;;;;;;;;;;;19.30;99.90;;;;;;4979161;28;20019;-80
2021/03/15 08:35:14;;;;;;;;;;;19.30;99.90;;;;;;4986739;28;19914;-81
2021/03/15 08:37:59;;;;;;;;;;;19.30;99.90;;;;;;4994847;28;20410;-80
2021/03/15 08:40:44;;;;;;;;;;;19.30;99.90;;;;;;4995046;28;19910;-81
2021/03/15 08:43:22;;;;;;;;;;;19.20;99.90;;;;;;4995118;28;19913;-82
2021/03/15 08:45:49;;;;;;;;;;;19.20;99.90;;;;;;4996445;28;20399;-83
2021/03/15 08:48:17;;;;;;;;;;;19.20;99.90;;;;;;4981524;28;19921;-78
2021/03/15 08:50:48;;;;;;;;;;;19.20;99.90;;;;;;4991132;28;19918;-80
2021/03/15 08:53:33;;;;;;;;;;;19.20;99.90;;;;;;4991965;28;19914;-81
2021/03/15 08:55:59;;;;;;;;;;;19.10;99.90;;;;;;4984983;28;19960;-83
2021/03/15 08:58:36;;;;;;;;;;;19.10;99.90;;;;;;4987815;28;19914;-79
2021/03/15 09:01:06;;;;;;;;;;;19.10;99.90;;;;;;4988347;28;20234;-78
2021/03/15 09:03:49;;;;;;;;;;;19.10;99.90;;;;;;4993368;28;19926;-78
2021/03/15 09:06:40;;;;;;;;;;;19.10;99.90;;;;;;4993345;28;19918;-78
2021/03/15 09:09:11;;;;;;;;;;;19.00;99.90;;;;;;4985754;28;19948;-79
2021/03/15 09:11:37;;;;;;;;;;;19.00;99.90;;;;;;4993700;28;19917;-83
2021/03/15 09:14:17;;;;;;;;;;;19.00;99.90;;;;;;4992024;28;19941;-79
2021/03/15 09:16:46;;;;;;;;;;;19.00;99.90;;;;;;4986913;28;19910;-79
2021/03/15 09:19:52;;;;;;;;;;;19.00;99.90;;;;;;4977132;28;19918;-79
2021/03/15 09:22:30;;;;;;;;;;;18.90;99.90;;;;;;4906668;29;20409;-78
2021/03/15 09:25:03;;;;;;;;;;;18.90;99.90;;;;;;4917797;29;20397;-80
2021/03/15 09:27:53;;;;;;;;;;;18.90;99.90;;;;;;4952152;28;20016;-82
2021/03/15 09:30:19;;;;;;;;;;;18.90;99.90;;;;;;4971621;28;19917;-79
2021/03/15 09:32:51;;;;;;;;;;;18.90;99.90;;;;;;4972560;28;19910;-78
2021/03/15 09:35:20;;;;;;;;;;;18.90;99.90;;;;;;4972933;28;20716;-81
2021/03/15 09:37:51;;;;;;;;;;;18.80;99.90;;;;;;4972266;28;20084;-79
2021/03/15 09:40:19;;;;;;;;;;;18.80;99.90;;;;;;4972207;28;19921;-78
2021/03/15 09:42:46;;;;;;;;;;;18.90;99.90;;;;;;4964957;28;19910;-79
2021/03/15 09:45:22;;;;;;;;;;;18.80;99.90;;;;;;4972030;28;19918;-78
2021/03/15 09:47:49;;;;;;;;;;;18.80;99.90;;;;;;4972331;28;19917;-79
2021/03/15 09:50:20;;;;;;;;;;;18.80;99.90;;;;;;4971455;28;20004;-79
2021/03/15 09:52:47;;;;;;;;;;;18.70;99.90;;;;;;4977272;28;19917;-82
2021/03/15 09:55:14;;;;;;;;;;;18.80;99.90;;;;;;4991956;28;19916;-81
2021/03/15 09:57:40;;;;;;;;;;;18.70;99.90;;;;;;4983332;28;20003;-80
2021/03/15 10:00:08;;;;;;;;;;;18.70;99.90;;;;;;4980186;28;20134;-79
2021/03/15 10:02:35;;;;;;;;;;;18.70;99.90;;;;;;4982609;28;19960;-81
2021/03/15 10:05:02;;;;;;;;;;;18.70;99.90;;;;;;4981036;28;19918;-78
2021/03/15 10:07:29;;;;;;;;;;;18.70;99.90;;;;;;4984189;28;20004;-79
2021/03/15 10:09:55;;;;;;;;;;;18.70;99.90;;;;;;4991603;28;20257;-78
2021/03/15 10:12:23;;;;;;;;;;;18.60;99.90;;;;;;4988531;28;19914;-79
2021/03/15 10:15:00;;;;;;;;;;;18.60;99.90;;;;;;4981085;28;19914;-80
2021/03/15 10:17:27;;;;;;;;;;;18.60;99.90;;;;;;4980775;28;19957;-82
2021/03/15 10:19:54;;;;;;;;;;;18.60;99.90;;;;;;4981473;28;20364;-79
2021/03/15 10:22:21;;;;;;;;;;;18.60;99.90;;;;;;4981390;28;19938;-80
2021/03/15 10:24:49;;;;;;;;;;;18.60;99.90;;;;;;4974920;28;20369;-79
2021/03/15 10:27:24;;;;;;;;;;;18.60;99.90;;;;;;4971137;28;19957;-80
2021/03/15 10:29:52;;;;;;;;;;;18.50;99.90;;;;;;4974994;28;19914;-81
2021/03/15 10:32:22;;;;;;;;;;;18.50;99.90;;;;;;4980976;28;20029;-82
2021/03/15 10:34:56;;;;;;;;;;;18.50;99.90;;;;;;4981332;28;19928;-82
2021/03/15 10:37:24;;;;;;;;;;;18.50;99.90;;;;;;4976112;28;19922;-80
2021/03/15 10:39:51;;;;;;;;;;;18.50;99.90;;;;;;4974948;28;19997;-80
2021/03/15 10:42:19;;;;;;;;;;;18.50;99.90;;;;;;4976004;28;19921;-81
2021/03/15 10:44:46;;;;;;;;;;;18.40;99.90;;;;;;4975864;28;19922;-78
2021/03/15 10:47:13;;;;;;;;;;;18.40;99.90;;;;;;4974564;28;19914;-81
2021/03/15 10:49:43;;;;;;;;;;;18.40;99.90;;;;;;4975159;28;19914;-77
2021/03/15 10:52:26;;;;;;;;;;;18.40;99.90;;;;;;4975535;28;19914;-78
2021/03/15 10:54:52;;;;;;;;;;;18.40;99.90;;;;;;4976031;28;20292;-77
2021/03/15 10:57:20;;;;;;;;;;;18.40;99.90;;;;;;4975947;28;19922;-78
2021/03/15 10:59:48;;;;;;;;;;;18.40;99.90;;;;;;4974903;28;19910;-78
2021/03/15 11:02:25;;;;;;;;;;;18.40;99.90;;;;;;4973573;28;19911;-78
2021/03/15 11:04:56;;;;;;;;;;;18.40;99.90;;;;;;4975935;28;20012;-79
2021/03/15 11:07:24;;;;;;;;;;;18.30;99.90;;;;;;4974520;28;20013;-80
2021/03/15 11:09:55;;;;;;;;;;;18.30;99.90;;;;;;4974443;28;19917;-79
2021/03/15 11:12:38;;;;;;;;;;;18.30;99.90;;;;;;4975332;28;20508;-80
2021/03/15 11:15:19;;;;;;;;;;;18.30;99.90;;;;;;4985104;28;20448;-79
2021/03/15 11:18:04;;;;;;;;;;;18.30;99.90;;;;;;4991610;28;20273;-80
2021/03/15 11:20:34;;;;;;;;;;;18.30;99.90;;;;;;4988297;28;19918;-79
2021/03/15 11:23:01;;;;;;;;;;;18.30;99.90;;;;;;4987701;28;19918;-84
2021/03/15 11:25:29;;;;;;;;;;;18.30;99.90;;;;;;4985739;28;19925;-79
2021/03/15 11:28:02;;;;;;;;;;;18.30;99.90;;;;;;4977496;28;20020;-81
2021/03/15 11:30:28;;;;;;;;;;;18.30;99.90;;;;;;4980902;28;19997;-78
2021/03/15 11:32:59;;;;;;;;;;;18.30;99.90;;;;;;4978313;28;19969;-80
2021/03/15 11:35:26;;;;;;;;;;;18.20;99.90;;;;;;4992012;28;19964;-79
2021/03/15 11:37:54;;;;;;;;;;;18.10;99.90;;;;;;4994331;28;20347;-78
2021/03/15 11:40:30;;;;;;;;;;;18.20;99.90;;;;;;4992699;28;19921;-78
2021/03/15 11:42:58;;;;;;;;;;;18.20;99.90;;;;;;4985307;28;19909;-79
2021/03/15 11:45:25;;;;;;;;;;;18.20;99.90;;;;;;4984001;28;19962;-82
2021/03/15 11:47:52;;;;;;;;;;;18.10;99.90;;;;;;4981898;28;19911;-81
2021/03/15 11:50:19;;;;;;;;;;;18.10;99.90;;;;;;4983988;28;19910;-81
2021/03/15 11:52:46;;;;;;;;;;;18.10;99.90;;;;;;4983892;28;19960;-79
2021/03/15 11:55:13;;;;;;;;;;;18.10;99.90;;;;;;4993382;28;19917;-79
2021/03/15 11:57:39;;;;;;;;;;;18.10;99.90;;;;;;4993748;28;19921;-78
2021/03/15 12:00:10;;;;;;;;;;;18.10;99.90;;;;;;4988906;28;19916;-78
2021/03/15 12:02:37;;;;;;;;;;;18.00;99.90;;;;;;4989451;28;19976;-77
2021/03/15 12:05:08;;;;;;;;;;;18.00;99.90;;;;;;4987205;28;19918;-79
2021/03/15 12:07:35;;;;;;;;;;;18.00;99.90;;;;;;4992572;28;19937;-79
2021/03/15 12:10:02;;;;;;;;;;;18.00;99.90;;;;;;4993423;28;19917;-79
2021/03/15 12:12:29;;;;;;;;;;;18.00;99.90;;;;;;4993616;28;19914;-83
2021/03/15 12:14:55;;;;;;;;;;;18.00;99.90;;;;;;4993502;28;19917;-80
2021/03/15 12:17:22;;;;;;;;;;;17.90;99.90;;;;;;4992289;28;20577;-76
2021/03/15 12:19:49;;;;;;;;;;;18.00;99.90;;;;;;4988572;28;20383;-76
2021/03/15 12:22:16;;;;;;;;;;;17.90;99.90;;;;;;4992541;28;19910;-78
2021/03/15 12:24:42;;;;;;;;;;;17.90;99.90;;;;;;4990728;28;19930;-79
2021/03/15 12:27:09;;;;;;;;;;;17.90;99.90;;;;;;4985955;28;20371;-79
2021/03/15 12:29:37;;;;;;;;;;;17.80;99.90;;;;;;4992619;28;19924;-82
2021/03/15 12:32:04;;;;;;;;;;;17.80;99.90;;;;;;4992012;28;19910;-76
2021/03/15 12:34:31;;;;;;;;;;;17.80;99.90;;;;;;4993117;28;19929;-75
2021/03/15 12:36:58;;;;;;;;;;;17.80;99.90;;;;;;4992569;28;20435;-74
2021/03/15 12:39:25;;;;;;;;;;;17.80;99.90;;;;;;4993925;28;20273;-76
2021/03/15 12:41:51;;;;;;;;;;;17.80;99.90;;;;;;4988454;28;20004;-76
2021/03/15 12:44:18;;;;;;;;;;;17.80;99.90;;;;;;4992260;28;20399;-74
2021/03/15 12:46:45;;;;;;;;;;;17.70;99.90;;;;;;4978615;28;19914;-80
2021/03/15 12:49:11;;;;;;;;;;;17.70;99.90;;;;;;4973741;28;19917;-76
2021/03/15 12:51:38;;;;;;;;;;;17.60;99.90;;;;;;4985776;28;20004;-78
2021/03/15 12:54:05;;;;;;;;;;;17.50;99.90;;;;;;4991125;28;20017;-83
2021/03/15 12:56:32;;;;;;;;;;;17.50;99.90;;;;;;4992699;28;19913;-81
2021/03/15 12:58:58;;;;;;;;;;;17.40;99.90;;;;;;4991310;28;19910;-76
2021/03/15 13:01:26;;;;;;;;;;;17.40;99.90;;;;;;4991707;28;19914;-76
2021/03/15 13:03:53;;;;;;;;;;;17.40;99.90;;;;;;4992562;28;19925;-76
2021/03/15 13:06:20;;;;;;;;;;;17.30;99.90;;;;;;4991169;28;19914;-76
2021/03/15 13:08:47;;;;;;;;;;;17.30;99.90;;;;;;4990284;28;19936;-76
2021/03/15 13:11:14;;;;;;;;;;;17.20;99.90;;;;;;4992646;28;19968;-79
2021/03/15 13:13:41;;;;;;;;;;;17.20;99.90;;;;;;4980337;28;19968;-80
2021/03/15 13:16:07;;;;;;;;;;;17.10;99.90;;;;;;4992460;28;19917;-77
2021/03/15 13:18:34;;;;;;;;;;;17.10;99.90;;;;;;4981083;28;20351;-82
2021/03/15 13:21:03;;;;;;;;;;;17.00;99.90;;;;;;4986081;28;19926;-80
2021/03/15 13:23:30;;;;;;;;;;;17.00;99.90;;;;;;4991566;28;19917;-79
2021/03/15 13:25:57;;;;;;;;;;;17.00;99.90;;;;;;4992044;28;19913;-77
2021/03/15 13:28:24;;;;;;;;;;;16.90;99.90;;;;;;4992282;28;20013;-76
2021/03/15 13:30:50;;;;;;;;;;;16.80;99.90;;;;;;4992131;28;19910;-78
2021/03/15 13:33:17;;;;;;;;;;;16.90;99.90;;;;;;4990433;28;20477;-75
2021/03/15 13:35:44;;;;;;;;;;;16.80;99.90;;;;;;4991873;28;19968;-76
2021/03/15 13:38:11;;;;;;;;;;;16.70;99.90;;;;;;4992011;28;20339;-77
2021/03/15 13:40:39;;;;;;;;;;;16.70;99.90;;;;;;4978181;28;19997;-77
2021/03/15 13:43:06;;;;;;;;;;;16.70;99.90;;;;;;4971645;28;19910;-77
2021/03/15 13:45:34;;;;;;;;;;;16.70;99.90;;;;;;4971508;28;19918;-78
2021/03/15 13:48:00;;;;;;;;;;;16.70;99.90;;;;;;4972840;28;19956;-79
2021/03/15 13:50:27;;;;;;;;;;;16.60;99.90;;;;;;4972461;28;19911;-77
2021/03/15 13:52:54;;;;;;;;;;;16.60;99.90;;;;;;4985066;28;19933;-78
2021/03/15 13:55:21;;;;;;;;;;;16.60;99.90;;;;;;4972832;28;20305;-78
2021/03/15 13:57:47;;;;;;;;;;;16.50;99.90;;;;;;4971422;28;19914;-78
2021/03/15 14:00:14;;;;;;;;;;;16.50;99.90;;;;;;4972497;28;19997;-80
2021/03/15 14:02:41;;;;;;;;;;;16.50;99.90;;;;;;4971632;28;19911;-80
2021/03/15 14:05:09;;;;;;;;;;;16.50;99.90;;;;;;4970836;28;19928;-78
2021/03/15 14:07:36;;;;;;;;;;;16.50;99.90;;;;;;4972558;28;20317;-78
2021/03/15 14:10:04;;;;;;;;;;;16.50;99.90;;;;;;4972543;28;19997;-76
2021/03/15 14:12:30;;;;;;;;;;;16.50;99.90;;;;;;4972525;28;20000;-75
2021/03/15 14:14:57;;;;;;;;;;;16.50;99.90;;;;;;4972544;28;19910;-75
2021/03/15 14:17:26;;;;;;;;;;;16.50;99.90;;;;;;4971703;28;19910;-80
2021/03/15 14:19:53;;;;;;;;;;;16.40;99.90;;;;;;4972732;28;20353;-75
2021/03/15 14:22:19;;;;;;;;;;;16.30;99.90;;;;;;4972395;28;19956;-78
2021/03/15 14:24:46;;;;;;;;;;;16.30;99.90;;;;;;4972621;28;19923;-76
2021/03/15 14:27:13;;;;;;;;;;;16.30;99.90;;;;;;4972587;28;19946;-76